Impacts TAF Board
For situational awareness. Not to be used for flight planning purposes.
IDs:

KMOB - Mobile Rgnl, AL, US

Issued at 0038 UTC 06 Dec 2020
Updated at 0114 UTC 06 Dec 2020
Potential Impact None Slight Moderate High
Time<<07/02Z 07/03Z 07/04Z 07/05Z 07/06Z 07/07Z 07/08Z 07/09Z 07/10Z 07/11Z 07/12Z 07/13Z 07/14Z
Type
VIS
CIG
Cover
FltCat
WX
WDir
WSpd
WGst
R14/32
XWnd 0 0 0 0 0 0 0 0 0 0 0 0 0
HWnd 0 0 0 0 0 0 0 0 0 0 0 0 0
R18/36
XWnd 0 0 0 0 0 0 0 0 0 0 0 0 0
HWnd 0 0 0 0 0 0 0 0 0 0 0 0 0
Raw TAF
KMOB 060038Z 0601/0624 VRB03KT P6SM BKN250
  FM061700 34005KT P6SM BKN120


METAR Board
Radar Display
Forecast Discussion
For situational awareness. Not to be used for flight planning purposes.